createdAt,value
2019-01-21T00:00:01.770Z,-4.2
2019-01-21T00:05:02.489Z,-4.2
2019-01-21T00:10:02.112Z,-4.2
2019-01-21T00:15:02.366Z,-4.1
2019-01-21T00:20:01.425Z,-4.1
2019-01-21T00:25:02.495Z,-4.1
2019-01-21T00:30:01.203Z,-4.1
2019-01-21T00:35:02.672Z,-4.2
2019-01-21T00:40:02.529Z,-4.3
2019-01-21T00:45:01.507Z,-4.4
2019-01-21T00:50:02.162Z,-4.4
2019-01-21T00:55:01.735Z,-4.5
2019-01-21T01:00:02.182Z,-4.5
2019-01-21T01:05:01.494Z,-4.6
2019-01-21T01:10:01.797Z,-4.6
2019-01-21T01:15:01.774Z,-4.6
2019-01-21T01:20:01.630Z,-4.6
2019-01-21T01:25:02.583Z,-4.5
2019-01-21T01:30:01.897Z,-4.4
2019-01-21T01:35:02.283Z,-4.3
2019-01-21T01:40:01.263Z,-4.2
2019-01-21T01:45:01.887Z,-4.2
2019-01-21T01:50:01.924Z,-4.1
2019-01-21T01:55:01.694Z,-4.1
2019-01-21T02:00:01.522Z,-4
2019-01-21T02:05:01.279Z,-4
2019-01-21T02:10:02.478Z,-3.9
2019-01-21T02:15:01.943Z,-3.9
2019-01-21T02:20:01.432Z,-3.9
2019-01-21T02:25:01.435Z,-3.9
2019-01-21T02:30:02.375Z,-3.9
2019-01-21T02:35:01.671Z,-3.9
2019-01-21T02:40:02.087Z,-3.9
2019-01-21T02:45:01.681Z,-3.9
2019-01-21T02:50:02.018Z,-3.9
2019-01-21T02:55:01.964Z,-3.8
2019-01-21T03:00:02.210Z,-3.8
2019-01-21T03:05:01.648Z,-3.7
2019-01-21T03:10:02.083Z,-3.6
2019-01-21T03:15:01.640Z,-3.6
2019-01-21T03:20:01.538Z,-3.6
2019-01-21T03:25:01.532Z,-3.6
2019-01-21T03:30:02.139Z,-3.5
2019-01-21T03:35:01.544Z,-3.4
2019-01-21T03:40:01.825Z,-3.4
2019-01-21T03:45:02.004Z,-3.4
2019-01-21T03:50:02.051Z,-3.3
2019-01-21T03:55:01.591Z,-3.3
2019-01-21T04:00:01.350Z,-3.3
2019-01-21T04:05:02.226Z,-3.3
2019-01-21T04:10:01.778Z,-3.3
2019-01-21T04:15:01.969Z,-3.3
2019-01-21T04:20:01.753Z,-3.3
2019-01-21T04:25:01.831Z,-3.2
2019-01-21T04:30:01.973Z,-3.2
2019-01-21T04:35:02.104Z,-3.2
2019-01-21T04:40:01.292Z,-3.2
2019-01-21T04:45:01.691Z,-3.2
2019-01-21T04:50:01.506Z,-3.1
2019-01-21T04:55:01.681Z,-3.1
2019-01-21T05:00:01.885Z,-3.1
2019-01-21T05:05:01.551Z,-3.1
2019-01-21T05:10:01.374Z,-3.1
2019-01-21T05:15:02.397Z,-3
2019-01-21T05:20:01.794Z,-3.1
2019-01-21T05:25:01.593Z,-3.1
2019-01-21T05:30:01.853Z,-3.1
2019-01-21T05:35:01.997Z,-3.1
2019-01-21T05:40:01.821Z,-3.1
2019-01-21T05:45:01.294Z,-3.2
2019-01-21T05:50:02.191Z,-3.2
2019-01-21T05:55:02.004Z,-3.2
2019-01-21T06:00:02.117Z,-3.3
2019-01-21T06:05:01.885Z,-3.3
2019-01-21T06:10:02.081Z,-3.2
2019-01-21T06:15:01.471Z,-3.3
2019-01-21T06:20:01.634Z,-3.3
2019-01-21T06:25:01.555Z,-3.2
2019-01-21T06:30:02.143Z,-3.2
2019-01-21T06:35:01.731Z,-3.2
2019-01-21T06:40:01.445Z,-3.2
2019-01-21T06:45:01.815Z,-3.2
2019-01-21T06:50:01.798Z,-3.2
2019-01-21T06:55:01.690Z,-3.2
2019-01-21T07:00:01.809Z,-3.2
2019-01-21T07:05:01.786Z,-3.2
2019-01-21T07:10:01.603Z,-3.1
2019-01-21T07:15:01.268Z,-3.1
2019-01-21T07:20:02.227Z,-3.2
2019-01-21T07:25:02.101Z,-3.2
2019-01-21T07:30:01.368Z,-3.1
2019-01-21T07:35:01.458Z,-3.1
2019-01-21T07:40:02.364Z,-3.1
2019-01-21T07:45:01.475Z,-3.1
2019-01-21T07:50:01.813Z,-3
2019-01-21T07:55:01.270Z,-3
2019-01-21T08:00:02.045Z,-3
2019-01-21T08:05:01.876Z,-3
2019-01-21T08:10:01.581Z,-3
2019-01-21T08:15:01.858Z,-3
2019-01-21T08:20:01.678Z,-3
2019-01-21T08:25:01.244Z,-2.9
2019-01-21T08:30:02.007Z,-2.8
2019-01-21T08:35:01.712Z,-2.7
2019-01-21T08:40:01.669Z,-2.7
2019-01-21T08:45:02.326Z,-2.6
2019-01-21T08:50:01.923Z,-2.6
2019-01-21T08:55:01.172Z,-2.6
2019-01-21T09:00:01.813Z,-2.6
2019-01-21T09:05:02.055Z,-2.5
2019-01-21T09:10:01.474Z,-2.5
2019-01-21T09:15:01.446Z,-2.5
2019-01-21T09:20:01.992Z,-2.4
2019-01-21T09:25:02.300Z,-2.4
2019-01-21T09:30:01.538Z,-2.4
2019-01-21T09:35:01.489Z,-2.4
2019-01-21T09:40:03.204Z,-2.4
2019-01-21T09:45:01.626Z,-2.4
2019-01-21T09:50:01.499Z,-2.5
2019-01-21T09:55:01.839Z,-2.4
2019-01-21T10:00:01.644Z,-2.2
2019-01-21T10:05:01.418Z,-2.1
2019-01-21T10:10:01.373Z,-2.1
2019-01-21T10:15:01.953Z,-2
2019-01-21T10:20:01.570Z,-1.9
2019-01-21T10:25:02.060Z,-1.9
2019-01-21T10:30:01.939Z,-1.7
2019-01-21T10:35:01.975Z,-1.7
2019-01-21T10:40:01.974Z,-1.6
2019-01-21T10:45:01.602Z,-1.5
2019-01-21T10:50:01.699Z,-1.5
2019-01-21T10:55:01.563Z,-1.4
2019-01-21T11:00:01.571Z,-1.4
2019-01-21T11:05:02.159Z,-1.4
2019-01-21T11:10:01.508Z,-1.4
2019-01-21T11:15:02.344Z,-1.4
2019-01-21T11:20:04.026Z,-1.3
2019-01-21T11:25:01.523Z,-1.1
2019-01-21T11:30:01.507Z,-0.9
2019-01-21T11:35:02.027Z,-0.9
2019-01-21T11:40:01.903Z,-0.9
2019-01-21T11:45:01.331Z,-0.8
2019-01-21T11:50:01.391Z,-0.3
2019-01-21T11:55:01.627Z,0
2019-01-21T12:00:01.829Z,0.2
2019-01-21T12:05:01.954Z,0.3
2019-01-21T12:10:01.509Z,0.2
2019-01-21T12:15:01.815Z,0.3
2019-01-21T12:20:01.758Z,0.3
2019-01-21T12:25:02.014Z,0.3
2019-01-21T12:30:01.915Z,0.3
2019-01-21T12:35:02.071Z,0.2
2019-01-21T12:40:01.274Z,0.3
2019-01-21T12:45:01.921Z,0.5
2019-01-21T12:50:01.406Z,0.4
2019-01-21T12:55:01.806Z,0.3
2019-01-21T13:00:01.333Z,0.3
2019-01-21T13:05:01.842Z,0.3
2019-01-21T13:10:01.625Z,0.3
2019-01-21T13:15:01.252Z,0.3
2019-01-21T13:20:01.264Z,0.3
2019-01-21T13:25:01.544Z,0.4
2019-01-21T13:30:02.438Z,0.4
2019-01-21T13:35:01.552Z,0.4
2019-01-21T13:40:02.290Z,0.5
2019-01-21T13:45:01.740Z,0.5
2019-01-21T13:50:01.384Z,0.6
2019-01-21T13:55:01.956Z,0.5
2019-01-21T14:00:01.777Z,0.6
2019-01-21T14:05:01.857Z,0.6
2019-01-21T14:10:01.546Z,0.7
2019-01-21T14:15:01.749Z,0.7
2019-01-21T14:20:01.493Z,0.7
2019-01-21T14:25:02.121Z,0.7
2019-01-21T14:30:02.371Z,0.7
2019-01-21T14:35:02.127Z,0.7
2019-01-21T14:40:01.598Z,0.8
2019-01-21T14:45:01.943Z,0.8
2019-01-21T14:50:01.632Z,0.8
2019-01-21T14:55:02.062Z,0.8
2019-01-21T15:00:02.011Z,0.8
2019-01-21T15:05:01.851Z,0.8
2019-01-21T15:10:02.685Z,0.9
2019-01-21T15:15:01.511Z,0.9
2019-01-21T15:20:02.165Z,0.9
2019-01-21T15:25:01.256Z,0.9
2019-01-21T15:30:02.467Z,0.9
2019-01-21T15:35:01.532Z,0.9
2019-01-21T15:40:02.277Z,0.9
2019-01-21T15:45:01.379Z,0.9
2019-01-21T15:50:01.613Z,0.9
2019-01-21T15:55:01.593Z,0.9
2019-01-21T16:00:01.966Z,0.8
2019-01-21T16:05:02.166Z,0.8
2019-01-21T16:10:01.847Z,0.8
2019-01-21T16:15:01.758Z,0.8
2019-01-21T16:20:01.452Z,0.8
2019-01-21T16:25:01.638Z,0.7
2019-01-21T16:30:01.586Z,0.7
2019-01-21T16:35:01.376Z,0.7
2019-01-21T16:40:02.160Z,0.7
2019-01-21T16:45:02.147Z,0.7
2019-01-21T16:50:02.089Z,0.7
2019-01-21T16:55:01.947Z,0.8
2019-01-21T17:00:01.576Z,0.8
2019-01-21T17:05:01.954Z,0.9
2019-01-21T17:10:02.259Z,0.9
2019-01-21T17:15:02.036Z,0.9
2019-01-21T17:20:01.708Z,0.9
2019-01-21T17:25:02.274Z,0.9
2019-01-21T17:30:01.495Z,0.8
2019-01-21T17:35:01.920Z,0.8
2019-01-21T17:40:02.013Z,0.7
2019-01-21T17:45:01.286Z,0.7
2019-01-21T17:50:02.269Z,0.7
2019-01-21T17:55:02.225Z,0.6
2019-01-21T18:00:03.335Z,0.5
2019-01-21T18:05:01.387Z,0.5
2019-01-21T18:10:01.941Z,0.5
2019-01-21T18:15:02.234Z,0.6
2019-01-21T18:20:02.434Z,0.6
2019-01-21T18:25:01.336Z,0.7
2019-01-21T18:30:02.181Z,0.7
2019-01-21T18:35:01.508Z,0.8
2019-01-21T18:40:01.751Z,0.9
2019-01-21T18:45:02.438Z,1
2019-01-21T18:50:01.751Z,0.9
2019-01-21T18:55:01.444Z,1
2019-01-21T19:00:02.313Z,1
2019-01-21T19:05:01.618Z,1
2019-01-21T19:10:01.623Z,1.1
2019-01-21T19:15:01.296Z,1.1
2019-01-21T19:20:02.214Z,1.1
2019-01-21T19:25:01.939Z,1.2
2019-01-21T19:30:02.060Z,1.2
2019-01-21T19:35:02.283Z,1.2
2019-01-21T19:40:01.755Z,1.2
2019-01-21T19:45:01.761Z,1.3
2019-01-21T19:50:01.183Z,1.3
2019-01-21T19:55:02.462Z,1.3
2019-01-21T20:00:01.875Z,1.3
2019-01-21T20:05:01.742Z,1.4
2019-01-21T20:10:02.052Z,1.4
2019-01-21T20:15:02.196Z,1.4
2019-01-21T20:20:01.319Z,1.4
2019-01-21T20:25:01.790Z,1.4
2019-01-21T20:30:01.661Z,1.4
2019-01-21T20:35:01.702Z,1.4
2019-01-21T20:40:01.348Z,1.4
2019-01-21T20:45:02.022Z,1.4
2019-01-21T20:50:02.182Z,1.5
2019-01-21T20:55:01.326Z,1.5
2019-01-21T21:00:01.722Z,1.5
2019-01-21T21:05:01.366Z,1.4
2019-01-21T21:10:02.470Z,1.4
2019-01-21T21:15:01.748Z,1.4
2019-01-21T21:20:01.748Z,1.4
2019-01-21T21:25:01.953Z,1.4
2019-01-21T21:30:01.742Z,1.4
2019-01-21T21:35:02.234Z,1.4
2019-01-21T21:40:02.256Z,1.4
2019-01-21T21:45:01.998Z,1.4
2019-01-21T21:50:02.142Z,1.4
2019-01-21T21:55:02.039Z,1.4
2019-01-21T22:00:01.943Z,1.4
2019-01-21T22:05:02.219Z,1.4
2019-01-21T22:10:01.343Z,1.4
2019-01-21T22:15:02.039Z,1.5
2019-01-21T22:20:01.397Z,1.4
2019-01-21T22:25:01.541Z,1.4
2019-01-21T22:30:01.505Z,1.3
2019-01-21T22:35:01.516Z,1.2
2019-01-21T22:40:01.893Z,1.2
2019-01-21T22:45:01.841Z,1.1
2019-01-21T22:50:01.802Z,1.2
2019-01-21T22:55:01.641Z,1.1
2019-01-21T23:00:01.539Z,1.1
2019-01-21T23:05:01.594Z,1.1
2019-01-21T23:10:01.739Z,1
2019-01-21T23:15:01.440Z,1
2019-01-21T23:20:02.039Z,1
2019-01-21T23:25:01.495Z,0.9
2019-01-21T23:30:02.133Z,0.9
2019-01-21T23:35:01.793Z,0.8
2019-01-21T23:40:01.660Z,0.8
2019-01-21T23:45:01.477Z,0.8
2019-01-21T23:50:02.166Z,0.7
2019-01-21T23:55:02.446Z,0.6
